createdAt,value
2023-02-24T16:55:32.700Z,15.32
2023-02-24T16:57:59.390Z,14.52
2023-02-24T17:00:25.990Z,13.10
2023-02-24T17:02:53.168Z,14.88
2023-02-24T17:05:22.625Z,14.27
2023-02-24T17:07:50.790Z,12.40
2023-02-24T17:10:17.922Z,12.65
2023-02-24T17:12:44.817Z,13.88
2023-02-24T17:15:18.026Z,13.50
2023-02-24T17:17:44.722Z,13.45
2023-02-24T17:20:13.516Z,12.25
2023-02-24T17:22:40.750Z,11.68
2023-02-24T17:25:08.001Z,11.70
2023-02-24T17:27:34.596Z,11.18
2023-02-24T17:30:01.108Z,11.02
2023-02-24T17:32:27.919Z,10.38
2023-02-24T17:34:54.654Z,10.80
2023-02-24T17:37:21.216Z,11.20
2023-02-24T17:39:47.757Z,10.05
2023-02-24T17:42:14.297Z,9.80
2023-02-24T17:44:40.875Z,10.18
2023-02-24T17:47:09.065Z,10.07
2023-02-24T17:49:35.624Z,10.25
2023-02-24T17:52:04.066Z,9.18
2023-02-24T17:54:31.832Z,9.20
2023-02-24T17:56:58.361Z,9.98
2023-02-24T17:59:25.002Z,9.32
2023-02-24T18:01:51.739Z,8.90
2023-02-24T18:04:18.341Z,8.15
2023-02-24T18:06:45.687Z,8.50
2023-02-24T18:09:12.232Z,8.75
2023-02-24T18:11:38.765Z,9.43
2023-02-24T18:14:05.374Z,8.85
2023-02-24T18:16:31.939Z,8.45
2023-02-24T18:18:58.540Z,7.93
2023-02-24T18:21:25.980Z,8.57
2023-02-24T18:23:52.605Z,9.00
2023-02-24T18:26:20.545Z,9.15
2023-02-24T18:28:48.460Z,8.88
2023-02-24T18:31:18.062Z,7.95
2023-02-24T18:33:45.010Z,8.07
2023-02-24T18:36:12.262Z,8.07
2023-02-24T18:38:38.962Z,9.48
2023-02-24T18:41:08.047Z,9.40
2023-02-24T18:43:35.610Z,8.63
2023-02-24T18:46:04.865Z,8.38
2023-02-24T18:48:32.768Z,8.93
2023-02-24T18:50:59.978Z,8.60
2023-02-24T18:53:30.554Z,8.20
2023-02-24T18:56:07.810Z,8.43
2023-02-24T18:58:40.948Z,8.40
2023-02-24T19:01:16.530Z,8.77
2023-02-24T19:03:43.718Z,8.10
2023-02-24T19:06:11.969Z,8.43
2023-02-24T19:08:39.571Z,9.70
2023-02-24T19:11:10.906Z,9.32
2023-02-24T19:13:37.538Z,8.27
2023-02-24T19:16:05.186Z,9.05
2023-02-24T19:18:32.004Z,8.43
2023-02-24T19:20:58.604Z,8.90
2023-02-24T19:23:25.242Z,9.38
2023-02-24T19:25:52.118Z,10.60
2023-02-24T19:28:19.225Z,10.40
2023-02-24T19:30:46.585Z,9.90
2023-02-24T19:33:13.277Z,9.40
2023-02-24T19:35:41.899Z,10.43
2023-02-24T19:38:09.442Z,9.80
2023-02-24T19:40:36.521Z,11.63
2023-02-24T19:43:03.140Z,10.02
2023-02-24T19:45:29.751Z,11.68
2023-02-24T19:47:56.356Z,11.45
2023-02-24T19:50:22.949Z,11.38
2023-02-24T19:52:49.502Z,10.10
2023-02-24T19:55:16.108Z,11.20
2023-02-24T19:57:42.671Z,11.40
2023-02-24T20:00:11.591Z,10.23
2023-02-24T20:02:41.235Z,11.27
2023-02-24T20:05:08.541Z,11.05
2023-02-24T20:07:35.097Z,11.38
2023-02-24T20:10:01.627Z,12.02
2023-02-24T20:12:28.361Z,11.35
2023-02-24T20:14:54.892Z,11.15
2023-02-24T20:17:22.135Z,10.75
2023-02-24T20:19:48.687Z,11.25
2023-02-24T20:22:15.225Z,11.27
2023-02-24T20:24:41.779Z,9.70
2023-02-24T20:27:08.635Z,11.02
2023-02-24T20:29:35.404Z,9.93
2023-02-24T20:32:02.980Z,11.20
2023-02-24T20:34:29.822Z,9.60
2023-02-24T20:36:56.361Z,10.35
2023-02-24T20:39:24.809Z,10.50
2023-02-24T20:44:20.390Z,9.70
2023-02-24T20:46:46.953Z,11.82
2023-02-24T20:49:14.933Z,12.20
2023-02-24T20:51:42.104Z,11.50
2023-02-24T20:54:11.056Z,10.60
2023-02-24T20:56:39.475Z,12.45
2023-02-24T20:59:17.534Z,10.90
2023-02-24T21:01:47.310Z,6.63
2023-02-24T21:04:15.117Z,5.72
2023-02-24T21:06:41.667Z,5.03
2023-02-24T21:09:08.208Z,4.93
2023-02-24T21:11:34.849Z,5.28
2023-02-24T21:14:01.555Z,3.47
2023-02-24T21:16:28.219Z,2.35
2023-02-24T21:18:55.818Z,1.50
2023-02-24T21:21:22.406Z,1.25
2023-02-24T21:23:50.360Z,1.23
2023-02-24T21:26:17.486Z,1.40
2023-02-24T21:28:44.503Z,1.20
2023-02-24T21:31:13.526Z,1.55
2023-02-24T21:33:40.523Z,1.42
2023-02-24T21:36:13.542Z,1.15
2023-02-24T21:38:41.332Z,1.73
2023-02-24T21:41:13.395Z,1.35
2023-02-24T21:43:40.409Z,1.95
2023-02-24T21:46:09.085Z,1.88
2023-02-24T21:48:37.036Z,2.13
2023-02-24T21:53:33.770Z,708.53
2023-02-24T21:56:18.868Z,983.20
2023-02-24T22:18:36.277Z,999.90
